sensor_id;sensor_type;location;lat;lon;timestamp;P1;durP1;ratioP1;P2;durP2;ratioP2
25409;SDS011;13339;50.840;4.346;2023-05-07T00:01:18;14.63;;;4.57;;
25409;SDS011;13339;50.840;4.346;2023-05-07T00:03:43;8.63;;;4.13;;
25409;SDS011;13339;50.840;4.346;2023-05-07T00:06:09;11.07;;;4.43;;
25409;SDS011;13339;50.840;4.346;2023-05-07T00:08:37;8.43;;;4.50;;
25409;SDS011;13339;50.840;4.346;2023-05-07T00:11:03;9.93;;;4.73;;
25409;SDS011;13339;50.840;4.346;2023-05-07T00:13:29;10.90;;;4.30;;
25409;SDS011;13339;50.840;4.346;2023-05-07T00:16:00;10.47;;;4.43;;
25409;SDS011;13339;50.840;4.346;2023-05-07T00:18:26;10.33;;;4.53;;
25409;SDS011;13339;50.840;4.346;2023-05-07T00:20:52;9.50;;;4.23;;
25409;SDS011;13339;50.840;4.346;2023-05-07T00:23:18;8.23;;;4.33;;
25409;SDS011;13339;50.840;4.346;2023-05-07T00:25:43;7.80;;;3.77;;
25409;SDS011;13339;50.840;4.346;2023-05-07T00:28:09;15.37;;;4.07;;
25409;SDS011;13339;50.840;4.346;2023-05-07T00:30:34;18.10;;;5.20;;
25409;SDS011;13339;50.840;4.346;2023-05-07T00:33:00;10.73;;;4.10;;
25409;SDS011;13339;50.840;4.346;2023-05-07T00:35:26;10.63;;;4.60;;
25409;SDS011;13339;50.840;4.346;2023-05-07T00:37:51;12.17;;;4.77;;
25409;SDS011;13339;50.840;4.346;2023-05-07T00:40:17;12.53;;;4.30;;
25409;SDS011;13339;50.840;4.346;2023-05-07T00:42:42;13.30;;;4.80;;
25409;SDS011;13339;50.840;4.346;2023-05-07T00:45:12;9.80;;;3.83;;
25409;SDS011;13339;50.840;4.346;2023-05-07T00:47:40;7.47;;;4.47;;
25409;SDS011;13339;50.840;4.346;2023-05-07T00:50:07;10.17;;;4.27;;
25409;SDS011;13339;50.840;4.346;2023-05-07T00:52:34;10.73;;;4.47;;
25409;SDS011;13339;50.840;4.346;2023-05-07T00:55:04;10.27;;;4.20;;
25409;SDS011;13339;50.840;4.346;2023-05-07T00:57:37;9.50;;;4.27;;
25409;SDS011;13339;50.840;4.346;2023-05-07T01:00:06;12.63;;;4.30;;
25409;SDS011;13339;50.840;4.346;2023-05-07T01:02:40;9.67;;;4.37;;
25409;SDS011;13339;50.840;4.346;2023-05-07T01:05:07;10.53;;;4.03;;
25409;SDS011;13339;50.840;4.346;2023-05-07T01:07:35;13.37;;;4.37;;
25409;SDS011;13339;50.840;4.346;2023-05-07T01:10:02;8.23;;;3.90;;
25409;SDS011;13339;50.840;4.346;2023-05-07T01:12:29;15.73;;;3.87;;
25409;SDS011;13339;50.840;4.346;2023-05-07T01:14:56;9.43;;;4.07;;
25409;SDS011;13339;50.840;4.346;2023-05-07T01:17:22;11.67;;;3.70;;
25409;SDS011;13339;50.840;4.346;2023-05-07T01:19:48;12.53;;;4.07;;
25409;SDS011;13339;50.840;4.346;2023-05-07T01:22:15;6.87;;;3.97;;
25409;SDS011;13339;50.840;4.346;2023-05-07T01:24:45;12.40;;;4.23;;
25409;SDS011;13339;50.840;4.346;2023-05-07T01:27:11;9.00;;;4.17;;
25409;SDS011;13339;50.840;4.346;2023-05-07T01:29:37;10.13;;;4.00;;
25409;SDS011;13339;50.840;4.346;2023-05-07T01:32:02;11.33;;;4.13;;
25409;SDS011;13339;50.840;4.346;2023-05-07T01:34:31;8.47;;;4.00;;
25409;SDS011;13339;50.840;4.346;2023-05-07T01:36:59;6.93;;;3.87;;
25409;SDS011;13339;50.840;4.346;2023-05-07T01:39:27;12.93;;;4.13;;
25409;SDS011;13339;50.840;4.346;2023-05-07T01:41:54;8.40;;;4.03;;
25409;SDS011;13339;50.840;4.346;2023-05-07T01:44:21;7.13;;;3.90;;
25409;SDS011;13339;50.840;4.346;2023-05-07T01:46:47;8.27;;;3.93;;
25409;SDS011;13339;50.840;4.346;2023-05-07T01:49:14;11.23;;;4.23;;
25409;SDS011;13339;50.840;4.346;2023-05-07T01:51:40;9.83;;;4.50;;
25409;SDS011;13339;50.840;4.346;2023-05-07T01:54:06;12.93;;;3.83;;
25409;SDS011;13339;50.840;4.346;2023-05-07T01:56:33;9.97;;;3.50;;
25409;SDS011;13339;50.840;4.346;2023-05-07T01:58:58;10.53;;;4.00;;
25409;SDS011;13339;50.840;4.346;2023-05-07T02:01:24;15.07;;;4.47;;
25409;SDS011;13339;50.840;4.346;2023-05-07T02:03:50;14.20;;;4.37;;
25409;SDS011;13339;50.840;4.346;2023-05-07T02:06:16;12.53;;;4.27;;
25409;SDS011;13339;50.840;4.346;2023-05-07T02:08:41;14.30;;;3.83;;
25409;SDS011;13339;50.840;4.346;2023-05-07T02:11:07;11.60;;;4.07;;
25409;SDS011;13339;50.840;4.346;2023-05-07T02:13:33;12.10;;;4.47;;
25409;SDS011;13339;50.840;4.346;2023-05-07T02:15:59;9.17;;;4.53;;
25409;SDS011;13339;50.840;4.346;2023-05-07T02:18:25;12.93;;;4.27;;
25409;SDS011;13339;50.840;4.346;2023-05-07T02:20:51;14.50;;;4.13;;
25409;SDS011;13339;50.840;4.346;2023-05-07T02:23:17;11.23;;;4.00;;
25409;SDS011;13339;50.840;4.346;2023-05-07T02:25:42;10.80;;;4.47;;
25409;SDS011;13339;50.840;4.346;2023-05-07T02:28:08;8.43;;;4.10;;
25409;SDS011;13339;50.840;4.346;2023-05-07T02:30:34;12.87;;;4.53;;
25409;SDS011;13339;50.840;4.346;2023-05-07T02:33:01;7.43;;;4.03;;
25409;SDS011;13339;50.840;4.346;2023-05-07T02:35:27;13.37;;;5.17;;
25409;SDS011;13339;50.840;4.346;2023-05-07T02:37:52;10.30;;;4.37;;
25409;SDS011;13339;50.840;4.346;2023-05-07T02:40:18;13.77;;;4.33;;
25409;SDS011;13339;50.840;4.346;2023-05-07T02:42:44;9.23;;;4.80;;
25409;SDS011;13339;50.840;4.346;2023-05-07T02:45:09;10.13;;;4.53;;
25409;SDS011;13339;50.840;4.346;2023-05-07T02:47:35;12.20;;;4.90;;
25409;SDS011;13339;50.840;4.346;2023-05-07T02:50:01;11.60;;;4.60;;
25409;SDS011;13339;50.840;4.346;2023-05-07T02:52:28;12.70;;;4.93;;
25409;SDS011;13339;50.840;4.346;2023-05-07T02:54:54;12.97;;;4.43;;
25409;SDS011;13339;50.840;4.346;2023-05-07T02:57:20;10.37;;;4.63;;
25409;SDS011;13339;50.840;4.346;2023-05-07T02:59:45;12.23;;;5.63;;
25409;SDS011;13339;50.840;4.346;2023-05-07T03:02:11;12.10;;;5.90;;
25409;SDS011;13339;50.840;4.346;2023-05-07T03:04:37;14.03;;;5.87;;
25409;SDS011;13339;50.840;4.346;2023-05-07T03:07:05;9.50;;;4.80;;
25409;SDS011;13339;50.840;4.346;2023-05-07T03:09:30;9.57;;;5.07;;
25409;SDS011;13339;50.840;4.346;2023-05-07T03:11:56;11.80;;;5.20;;
25409;SDS011;13339;50.840;4.346;2023-05-07T03:14:22;10.43;;;5.23;;
25409;SDS011;13339;50.840;4.346;2023-05-07T03:16:48;12.37;;;5.10;;
25409;SDS011;13339;50.840;4.346;2023-05-07T03:19:14;12.60;;;4.57;;
25409;SDS011;13339;50.840;4.346;2023-05-07T03:21:40;15.23;;;5.00;;
25409;SDS011;13339;50.840;4.346;2023-05-07T03:24:06;12.37;;;4.77;;
25409;SDS011;13339;50.840;4.346;2023-05-07T03:26:31;10.47;;;4.17;;
25409;SDS011;13339;50.840;4.346;2023-05-07T03:28:57;7.43;;;4.27;;
25409;SDS011;13339;50.840;4.346;2023-05-07T03:31:23;6.97;;;4.33;;
25409;SDS011;13339;50.840;4.346;2023-05-07T03:33:49;14.13;;;5.00;;
25409;SDS011;13339;50.840;4.346;2023-05-07T03:36:16;9.73;;;4.40;;
25409;SDS011;13339;50.840;4.346;2023-05-07T03:38:42;9.47;;;4.33;;
25409;SDS011;13339;50.840;4.346;2023-05-07T03:41:07;10.77;;;4.30;;
25409;SDS011;13339;50.840;4.346;2023-05-07T03:43:33;11.27;;;4.80;;
25409;SDS011;13339;50.840;4.346;2023-05-07T03:45:58;10.93;;;4.80;;
25409;SDS011;13339;50.840;4.346;2023-05-07T03:48:24;9.50;;;5.13;;
25409;SDS011;13339;50.840;4.346;2023-05-07T03:50:50;9.17;;;4.83;;
25409;SDS011;13339;50.840;4.346;2023-05-07T03:53:15;8.77;;;4.60;;
25409;SDS011;13339;50.840;4.346;2023-05-07T03:55:41;19.03;;;5.60;;
25409;SDS011;13339;50.840;4.346;2023-05-07T03:58:06;13.10;;;4.87;;
25409;SDS011;13339;50.840;4.346;2023-05-07T04:00:32;9.67;;;4.77;;
25409;SDS011;13339;50.840;4.346;2023-05-07T04:03:02;11.67;;;5.40;;
25409;SDS011;13339;50.840;4.346;2023-05-07T04:05:28;14.03;;;4.80;;
25409;SDS011;13339;50.840;4.346;2023-05-07T04:07:54;10.10;;;5.13;;
25409;SDS011;13339;50.840;4.346;2023-05-07T04:10:20;13.07;;;5.07;;
25409;SDS011;13339;50.840;4.346;2023-05-07T04:12:45;10.67;;;4.97;;
25409;SDS011;13339;50.840;4.346;2023-05-07T04:15:11;12.13;;;5.23;;
25409;SDS011;13339;50.840;4.346;2023-05-07T04:17:37;10.67;;;5.33;;
25409;SDS011;13339;50.840;4.346;2023-05-07T04:20:02;16.10;;;5.87;;
25409;SDS011;13339;50.840;4.346;2023-05-07T04:22:28;14.13;;;5.60;;
25409;SDS011;13339;50.840;4.346;2023-05-07T04:24:54;13.10;;;5.30;;
25409;SDS011;13339;50.840;4.346;2023-05-07T04:27:20;11.80;;;5.63;;
25409;SDS011;13339;50.840;4.346;2023-05-07T04:29:46;11.57;;;4.80;;
25409;SDS011;13339;50.840;4.346;2023-05-07T04:32:12;13.63;;;4.90;;
25409;SDS011;13339;50.840;4.346;2023-05-07T04:34:38;14.73;;;5.83;;
25409;SDS011;13339;50.840;4.346;2023-05-07T04:37:03;18.33;;;5.80;;
25409;SDS011;13339;50.840;4.346;2023-05-07T04:39:29;17.20;;;5.80;;
25409;SDS011;13339;50.840;4.346;2023-05-07T04:41:55;18.00;;;5.70;;
25409;SDS011;13339;50.840;4.346;2023-05-07T04:44:20;18.23;;;6.00;;
25409;SDS011;13339;50.840;4.346;2023-05-07T04:46:46;12.73;;;5.47;;
25409;SDS011;13339;50.840;4.346;2023-05-07T04:49:11;13.13;;;5.67;;
25409;SDS011;13339;50.840;4.346;2023-05-07T04:51:37;9.70;;;4.97;;
25409;SDS011;13339;50.840;4.346;2023-05-07T04:54:03;16.53;;;6.27;;
25409;SDS011;13339;50.840;4.346;2023-05-07T04:56:29;11.97;;;5.70;;
25409;SDS011;13339;50.840;4.346;2023-05-07T04:58:55;16.60;;;6.53;;
25409;SDS011;13339;50.840;4.346;2023-05-07T05:01:20;12.60;;;6.60;;
25409;SDS011;13339;50.840;4.346;2023-05-07T05:03:46;12.37;;;6.17;;
25409;SDS011;13339;50.840;4.346;2023-05-07T05:06:12;9.07;;;5.80;;
25409;SDS011;13339;50.840;4.346;2023-05-07T05:08:37;12.53;;;6.47;;
25409;SDS011;13339;50.840;4.346;2023-05-07T05:11:03;17.47;;;5.97;;
25409;SDS011;13339;50.840;4.346;2023-05-07T05:13:29;12.53;;;5.60;;
25409;SDS011;13339;50.840;4.346;2023-05-07T05:15:55;10.73;;;5.50;;
25409;SDS011;13339;50.840;4.346;2023-05-07T05:18:21;11.87;;;6.27;;
25409;SDS011;13339;50.840;4.346;2023-05-07T05:20:47;11.70;;;5.50;;
25409;SDS011;13339;50.840;4.346;2023-05-07T05:23:13;14.07;;;5.90;;
25409;SDS011;13339;50.840;4.346;2023-05-07T05:25:38;13.63;;;6.13;;
25409;SDS011;13339;50.840;4.346;2023-05-07T05:28:05;11.20;;;6.03;;
25409;SDS011;13339;50.840;4.346;2023-05-07T05:30:31;12.13;;;5.33;;
25409;SDS011;13339;50.840;4.346;2023-05-07T05:32:56;13.47;;;6.03;;
25409;SDS011;13339;50.840;4.346;2023-05-07T05:35:22;14.27;;;6.27;;
25409;SDS011;13339;50.840;4.346;2023-05-07T05:37:47;10.77;;;5.80;;
25409;SDS011;13339;50.840;4.346;2023-05-07T05:40:13;12.97;;;6.40;;
25409;SDS011;13339;50.840;4.346;2023-05-07T05:42:39;13.30;;;6.13;;
25409;SDS011;13339;50.840;4.346;2023-05-07T05:45:04;15.27;;;5.40;;
25409;SDS011;13339;50.840;4.346;2023-05-07T05:47:31;10.47;;;5.80;;
25409;SDS011;13339;50.840;4.346;2023-05-07T05:49:56;11.57;;;5.70;;
25409;SDS011;13339;50.840;4.346;2023-05-07T05:52:22;12.13;;;5.20;;
25409;SDS011;13339;50.840;4.346;2023-05-07T05:54:48;13.37;;;5.93;;
25409;SDS011;13339;50.840;4.346;2023-05-07T05:57:14;12.17;;;5.37;;
25409;SDS011;13339;50.840;4.346;2023-05-07T05:59:40;9.07;;;5.10;;
25409;SDS011;13339;50.840;4.346;2023-05-07T06:02:06;13.07;;;5.80;;
25409;SDS011;13339;50.840;4.346;2023-05-07T06:04:32;13.10;;;6.47;;
25409;SDS011;13339;50.840;4.346;2023-05-07T06:06:57;13.23;;;5.83;;
25409;SDS011;13339;50.840;4.346;2023-05-07T06:09:23;19.80;;;6.30;;
25409;SDS011;13339;50.840;4.346;2023-05-07T06:11:49;16.97;;;6.07;;
25409;SDS011;13339;50.840;4.346;2023-05-07T06:14:14;12.10;;;5.50;;
25409;SDS011;13339;50.840;4.346;2023-05-07T06:16:40;9.93;;;5.40;;
25409;SDS011;13339;50.840;4.346;2023-05-07T06:19:06;12.07;;;6.40;;
25409;SDS011;13339;50.840;4.346;2023-05-07T06:21:32;10.67;;;5.43;;
25409;SDS011;13339;50.840;4.346;2023-05-07T06:23:58;12.93;;;6.13;;
25409;SDS011;13339;50.840;4.346;2023-05-07T06:26:23;11.07;;;5.10;;
25409;SDS011;13339;50.840;4.346;2023-05-07T06:28:50;12.57;;;5.50;;
25409;SDS011;13339;50.840;4.346;2023-05-07T06:31:16;13.53;;;5.67;;
25409;SDS011;13339;50.840;4.346;2023-05-07T06:33:46;17.93;;;5.00;;
25409;SDS011;13339;50.840;4.346;2023-05-07T06:36:12;15.13;;;6.10;;
25409;SDS011;13339;50.840;4.346;2023-05-07T06:38:38;11.70;;;5.37;;
25409;SDS011;13339;50.840;4.346;2023-05-07T06:41:05;11.17;;;5.30;;
25409;SDS011;13339;50.840;4.346;2023-05-07T06:43:31;10.60;;;4.73;;
25409;SDS011;13339;50.840;4.346;2023-05-07T06:45:57;11.53;;;4.83;;
25409;SDS011;13339;50.840;4.346;2023-05-07T06:48:23;10.27;;;5.47;;
25409;SDS011;13339;50.840;4.346;2023-05-07T06:50:48;9.60;;;4.43;;
25409;SDS011;13339;50.840;4.346;2023-05-07T06:53:14;9.07;;;4.27;;
25409;SDS011;13339;50.840;4.346;2023-05-07T06:55:40;11.60;;;4.70;;
25409;SDS011;13339;50.840;4.346;2023-05-07T06:58:06;11.37;;;5.27;;
25409;SDS011;13339;50.840;4.346;2023-05-07T07:00:32;10.20;;;4.70;;
25409;SDS011;13339;50.840;4.346;2023-05-07T07:02:58;7.30;;;4.40;;
25409;SDS011;13339;50.840;4.346;2023-05-07T07:05:25;8.93;;;4.73;;
25409;SDS011;13339;50.840;4.346;2023-05-07T07:07:51;8.97;;;5.10;;
25409;SDS011;13339;50.840;4.346;2023-05-07T07:10:19;7.47;;;4.60;;
25409;SDS011;13339;50.840;4.346;2023-05-07T07:12:45;9.23;;;4.83;;
25409;SDS011;13339;50.840;4.346;2023-05-07T07:15:11;11.50;;;4.87;;
25409;SDS011;13339;50.840;4.346;2023-05-07T07:17:36;9.20;;;4.80;;
25409;SDS011;13339;50.840;4.346;2023-05-07T07:20:02;8.10;;;5.40;;
25409;SDS011;13339;50.840;4.346;2023-05-07T07:22:28;11.80;;;5.57;;
25409;SDS011;13339;50.840;4.346;2023-05-07T07:24:54;10.40;;;5.33;;
25409;SDS011;13339;50.840;4.346;2023-05-07T07:27:19;10.23;;;5.60;;
25409;SDS011;13339;50.840;4.346;2023-05-07T07:29:45;8.43;;;5.20;;
25409;SDS011;13339;50.840;4.346;2023-05-07T07:32:11;10.17;;;5.60;;
25409;SDS011;13339;50.840;4.346;2023-05-07T07:34:36;9.90;;;4.87;;
25409;SDS011;13339;50.840;4.346;2023-05-07T07:37:02;9.07;;;5.07;;
25409;SDS011;13339;50.840;4.346;2023-05-07T07:39:30;8.77;;;4.50;;
25409;SDS011;13339;50.840;4.346;2023-05-07T07:41:59;10.43;;;5.17;;
25409;SDS011;13339;50.840;4.346;2023-05-07T07:44:25;9.47;;;4.50;;
25409;SDS011;13339;50.840;4.346;2023-05-07T07:46:51;8.60;;;5.20;;
25409;SDS011;13339;50.840;4.346;2023-05-07T07:49:16;10.70;;;4.70;;
25409;SDS011;13339;50.840;4.346;2023-05-07T07:51:42;8.00;;;4.87;;
25409;SDS011;13339;50.840;4.346;2023-05-07T07:54:08;9.33;;;4.83;;
25409;SDS011;13339;50.840;4.346;2023-05-07T07:56:33;9.83;;;5.10;;
25409;SDS011;13339;50.840;4.346;2023-05-07T07:59:00;11.20;;;5.63;;
25409;SDS011;13339;50.840;4.346;2023-05-07T08:01:25;7.63;;;4.70;;
25409;SDS011;13339;50.840;4.346;2023-05-07T08:03:51;6.33;;;4.83;;
25409;SDS011;13339;50.840;4.346;2023-05-07T08:06:17;12.80;;;5.90;;
25409;SDS011;13339;50.840;4.346;2023-05-07T08:08:43;8.63;;;5.20;;
25409;SDS011;13339;50.840;4.346;2023-05-07T08:11:09;6.37;;;4.63;;
25409;SDS011;13339;50.840;4.346;2023-05-07T08:13:35;12.10;;;5.33;;
25409;SDS011;13339;50.840;4.346;2023-05-07T08:16:01;8.17;;;5.07;;
25409;SDS011;13339;50.840;4.346;2023-05-07T08:18:27;14.73;;;5.30;;
25409;SDS011;13339;50.840;4.346;2023-05-07T08:20:54;8.37;;;5.50;;
25409;SDS011;13339;50.840;4.346;2023-05-07T08:23:20;8.57;;;5.73;;
25409;SDS011;13339;50.840;4.346;2023-05-07T08:25:46;12.30;;;5.27;;
25409;SDS011;13339;50.840;4.346;2023-05-07T08:28:11;8.10;;;4.90;;
25409;SDS011;13339;50.840;4.346;2023-05-07T08:30:37;8.03;;;5.30;;
25409;SDS011;13339;50.840;4.346;2023-05-07T08:33:03;6.17;;;5.00;;
25409;SDS011;13339;50.840;4.346;2023-05-07T08:35:28;11.07;;;6.33;;
25409;SDS011;13339;50.840;4.346;2023-05-07T08:37:54;7.83;;;5.60;;
25409;SDS011;13339;50.840;4.346;2023-05-07T08:40:20;9.10;;;4.83;;
25409;SDS011;13339;50.840;4.346;2023-05-07T08:42:51;9.60;;;5.37;;
25409;SDS011;13339;50.840;4.346;2023-05-07T08:45:17;9.50;;;5.43;;
25409;SDS011;13339;50.840;4.346;2023-05-07T08:47:52;7.73;;;5.67;;
25409;SDS011;13339;50.840;4.346;2023-05-07T08:50:23;7.63;;;5.33;;
25409;SDS011;13339;50.840;4.346;2023-05-07T08:52:49;8.63;;;5.83;;
25409;SDS011;13339;50.840;4.346;2023-05-07T08:55:15;8.63;;;5.17;;
25409;SDS011;13339;50.840;4.346;2023-05-07T08:57:41;7.97;;;5.10;;
25409;SDS011;13339;50.840;4.346;2023-05-07T09:00:07;7.80;;;5.10;;
25409;SDS011;13339;50.840;4.346;2023-05-07T09:02:34;7.17;;;4.77;;
25409;SDS011;13339;50.840;4.346;2023-05-07T09:05:01;6.33;;;4.90;;
25409;SDS011;13339;50.840;4.346;2023-05-07T09:07:27;10.97;;;6.00;;
25409;SDS011;13339;50.840;4.346;2023-05-07T09:09:53;7.10;;;5.13;;
25409;SDS011;13339;50.840;4.346;2023-05-07T09:12:20;6.50;;;5.50;;
25409;SDS011;13339;50.840;4.346;2023-05-07T09:14:46;9.23;;;6.13;;
25409;SDS011;13339;50.840;4.346;2023-05-07T09:17:12;10.80;;;6.27;;
25409;SDS011;13339;50.840;4.346;2023-05-07T09:19:38;9.10;;;5.60;;
25409;SDS011;13339;50.840;4.346;2023-05-07T09:22:04;10.10;;;5.90;;
25409;SDS011;13339;50.840;4.346;2023-05-07T09:24:32;9.67;;;5.93;;
25409;SDS011;13339;50.840;4.346;2023-05-07T09:27:02;8.90;;;5.63;;
25409;SDS011;13339;50.840;4.346;2023-05-07T09:29:29;9.93;;;5.90;;
25409;SDS011;13339;50.840;4.346;2023-05-07T09:32:00;9.17;;;6.00;;
25409;SDS011;13339;50.840;4.346;2023-05-07T09:34:30;11.03;;;5.70;;
25409;SDS011;13339;50.840;4.346;2023-05-07T09:36:56;12.80;;;6.10;;
25409;SDS011;13339;50.840;4.346;2023-05-07T09:39:25;7.63;;;5.20;;
25409;SDS011;13339;50.840;4.346;2023-05-07T09:41:51;9.17;;;4.73;;
25409;SDS011;13339;50.840;4.346;2023-05-07T09:44:19;6.20;;;4.43;;
25409;SDS011;13339;50.840;4.346;2023-05-07T09:46:45;6.10;;;4.73;;
25409;SDS011;13339;50.840;4.346;2023-05-07T09:49:20;9.07;;;5.60;;
25409;SDS011;13339;50.840;4.346;2023-05-07T09:51:51;11.47;;;5.80;;
25409;SDS011;13339;50.840;4.346;2023-05-07T09:54:17;12.07;;;5.47;;
25409;SDS011;13339;50.840;4.346;2023-05-07T09:56:48;10.60;;;4.90;;
25409;SDS011;13339;50.840;4.346;2023-05-07T09:59:14;7.77;;;4.27;;
25409;SDS011;13339;50.840;4.346;2023-05-07T10:01:41;7.00;;;4.07;;
25409;SDS011;13339;50.840;4.346;2023-05-07T10:04:08;6.73;;;3.93;;
25409;SDS011;13339;50.840;4.346;2023-05-07T10:06:35;6.53;;;4.03;;
25409;SDS011;13339;50.840;4.346;2023-05-07T10:09:02;7.83;;;5.03;;
25409;SDS011;13339;50.840;4.346;2023-05-07T10:11:30;6.23;;;4.67;;
25409;SDS011;13339;50.840;4.346;2023-05-07T10:14:00;10.20;;;5.53;;
25409;SDS011;13339;50.840;4.346;2023-05-07T10:16:27;8.17;;;4.67;;
25409;SDS011;13339;50.840;4.346;2023-05-07T10:18:58;8.87;;;4.33;;
25409;SDS011;13339;50.840;4.346;2023-05-07T10:21:24;8.73;;;4.97;;
25409;SDS011;13339;50.840;4.346;2023-05-07T10:23:59;10.80;;;6.03;;
25409;SDS011;13339;50.840;4.346;2023-05-07T10:26:39;7.43;;;4.70;;
25409;SDS011;13339;50.840;4.346;2023-05-07T10:29:12;7.70;;;4.60;;
25409;SDS011;13339;50.840;4.346;2023-05-07T10:34:56;5.50;;;4.40;;
25409;SDS011;13339;50.840;4.346;2023-05-07T10:37:24;8.43;;;4.30;;
25409;SDS011;13339;50.840;4.346;2023-05-07T10:39:52;6.93;;;4.50;;
25409;SDS011;13339;50.840;4.346;2023-05-07T10:42:18;8.43;;;4.77;;
25409;SDS011;13339;50.840;4.346;2023-05-07T10:44:43;9.43;;;5.80;;
25409;SDS011;13339;50.840;4.346;2023-05-07T10:47:13;6.87;;;4.83;;
25409;SDS011;13339;50.840;4.346;2023-05-07T10:52:17;7.07;;;5.40;;
25409;SDS011;13339;50.840;4.346;2023-05-07T10:54:44;7.73;;;5.00;;
25409;SDS011;13339;50.840;4.346;2023-05-07T10:59:57;6.13;;;3.30;;
25409;SDS011;13339;50.840;4.346;2023-05-07T11:02:23;5.17;;;3.43;;
25409;SDS011;13339;50.840;4.346;2023-05-07T11:05:24;7.67;;;3.97;;
25409;SDS011;13339;50.840;4.346;2023-05-07T11:07:57;4.37;;;2.90;;
25409;SDS011;13339;50.840;4.346;2023-05-07T11:13:18;7.20;;;2.93;;
25409;SDS011;13339;50.840;4.346;2023-05-07T11:16:04;5.60;;;3.13;;
25409;SDS011;13339;50.840;4.346;2023-05-07T11:18:49;5.57;;;3.57;;
25409;SDS011;13339;50.840;4.346;2023-05-07T11:21:49;6.87;;;3.60;;
25409;SDS011;13339;50.840;4.346;2023-05-07T11:24:08;5.53;;;3.23;;
25409;SDS011;13339;50.840;4.346;2023-05-07T11:26:41;6.30;;;2.90;;
25409;SDS011;13339;50.840;4.346;2023-05-07T11:29:14;5.70;;;2.80;;
25409;SDS011;13339;50.840;4.346;2023-05-07T11:31:41;5.00;;;3.10;;
25409;SDS011;13339;50.840;4.346;2023-05-07T11:34:06;5.73;;;3.10;;
25409;SDS011;13339;50.840;4.346;2023-05-07T11:36:33;4.97;;;2.90;;
25409;SDS011;13339;50.840;4.346;2023-05-07T11:38:59;5.60;;;3.20;;
25409;SDS011;13339;50.840;4.346;2023-05-07T11:41:34;6.07;;;3.60;;
25409;SDS011;13339;50.840;4.346;2023-05-07T11:44:01;5.40;;;3.63;;
25409;SDS011;13339;50.840;4.346;2023-05-07T11:46:27;4.87;;;3.63;;
25409;SDS011;13339;50.840;4.346;2023-05-07T11:48:54;6.07;;;3.70;;
25409;SDS011;13339;50.840;4.346;2023-05-07T11:51:21;8.10;;;4.13;;
25409;SDS011;13339;50.840;4.346;2023-05-07T11:53:48;6.27;;;3.67;;
25409;SDS011;13339;50.840;4.346;2023-05-07T11:56:15;6.37;;;3.80;;
25409;SDS011;13339;50.840;4.346;2023-05-07T11:58:42;5.63;;;3.70;;
25409;SDS011;13339;50.840;4.346;2023-05-07T12:01:09;5.30;;;4.00;;
25409;SDS011;13339;50.840;4.346;2023-05-07T12:03:36;5.10;;;3.33;;
25409;SDS011;13339;50.840;4.346;2023-05-07T12:06:02;4.17;;;3.70;;
25409;SDS011;13339;50.840;4.346;2023-05-07T12:08:30;6.53;;;3.03;;
25409;SDS011;13339;50.840;4.346;2023-05-07T12:10:56;5.37;;;2.60;;
25409;SDS011;13339;50.840;4.346;2023-05-07T12:13:22;5.20;;;3.03;;
25409;SDS011;13339;50.840;4.346;2023-05-07T12:15:53;5.07;;;2.97;;
25409;SDS011;13339;50.840;4.346;2023-05-07T12:18:20;4.93;;;2.90;;
25409;SDS011;13339;50.840;4.346;2023-05-07T12:20:46;7.63;;;3.57;;
25409;SDS011;13339;50.840;4.346;2023-05-07T12:23:13;4.50;;;2.70;;
25409;SDS011;13339;50.840;4.346;2023-05-07T12:25:39;4.17;;;2.90;;
25409;SDS011;13339;50.840;4.346;2023-05-07T12:28:12;4.73;;;3.37;;
25409;SDS011;13339;50.840;4.346;2023-05-07T12:30:40;5.20;;;3.30;;
25409;SDS011;13339;50.840;4.346;2023-05-07T12:33:06;4.40;;;3.53;;
25409;SDS011;13339;50.840;4.346;2023-05-07T12:35:39;4.80;;;3.80;;
25409;SDS011;13339;50.840;4.346;2023-05-07T12:38:13;5.13;;;3.63;;
25409;SDS011;13339;50.840;4.346;2023-05-07T12:40:41;4.93;;;3.50;;
25409;SDS011;13339;50.840;4.346;2023-05-07T12:43:08;4.20;;;3.47;;
25409;SDS011;13339;50.840;4.346;2023-05-07T12:45:43;4.53;;;4.10;;
25409;SDS011;13339;50.840;4.346;2023-05-07T12:48:10;4.90;;;3.80;;
25409;SDS011;13339;50.840;4.346;2023-05-07T12:50:36;4.43;;;3.83;;
25409;SDS011;13339;50.840;4.346;2023-05-07T12:53:05;7.10;;;4.70;;
25409;SDS011;13339;50.840;4.346;2023-05-07T12:55:39;6.43;;;4.60;;
25409;SDS011;13339;50.840;4.346;2023-05-07T12:58:16;7.77;;;4.70;;
25409;SDS011;13339;50.840;4.346;2023-05-07T13:00:43;5.53;;;4.73;;
25409;SDS011;13339;50.840;4.346;2023-05-07T13:03:09;7.33;;;6.63;;
25409;SDS011;13339;50.840;4.346;2023-05-07T13:05:35;6.50;;;5.80;;
25409;SDS011;13339;50.840;4.346;2023-05-07T13:08:01;8.40;;;5.93;;
25409;SDS011;13339;50.840;4.346;2023-05-07T13:10:27;7.03;;;6.07;;
25409;SDS011;13339;50.840;4.346;2023-05-07T13:12:53;7.33;;;6.20;;
25409;SDS011;13339;50.840;4.346;2023-05-07T13:15:19;7.40;;;6.70;;
25409;SDS011;13339;50.840;4.346;2023-05-07T13:17:46;6.40;;;5.80;;
25409;SDS011;13339;50.840;4.346;2023-05-07T13:20:12;6.77;;;6.07;;
25409;SDS011;13339;50.840;4.346;2023-05-07T13:22:38;6.60;;;5.97;;
25409;SDS011;13339;50.840;4.346;2023-05-07T13:25:04;8.97;;;7.13;;
25409;SDS011;13339;50.840;4.346;2023-05-07T13:27:30;9.10;;;7.57;;
25409;SDS011;13339;50.840;4.346;2023-05-07T13:29:56;8.63;;;6.80;;
25409;SDS011;13339;50.840;4.346;2023-05-07T13:32:22;7.37;;;6.77;;
25409;SDS011;13339;50.840;4.346;2023-05-07T13:34:48;8.20;;;7.40;;
25409;SDS011;13339;50.840;4.346;2023-05-07T13:37:13;8.90;;;8.00;;
25409;SDS011;13339;50.840;4.346;2023-05-07T13:39:39;9.13;;;8.23;;
25409;SDS011;13339;50.840;4.346;2023-05-07T13:42:05;9.90;;;8.90;;
25409;SDS011;13339;50.840;4.346;2023-05-07T13:44:31;10.87;;;8.73;;
25409;SDS011;13339;50.840;4.346;2023-05-07T13:46:57;10.73;;;9.63;;
25409;SDS011;13339;50.840;4.346;2023-05-07T13:49:23;10.57;;;9.57;;
25409;SDS011;13339;50.840;4.346;2023-05-07T13:51:49;14.17;;;10.40;;
25409;SDS011;13339;50.840;4.346;2023-05-07T13:54:14;12.87;;;10.80;;
25409;SDS011;13339;50.840;4.346;2023-05-07T13:56:40;11.50;;;10.30;;
25409;SDS011;13339;50.840;4.346;2023-05-07T13:59:06;11.60;;;10.43;;
25409;SDS011;13339;50.840;4.346;2023-05-07T14:01:32;14.37;;;11.60;;
25409;SDS011;13339;50.840;4.346;2023-05-07T14:03:58;11.97;;;10.73;;
25409;SDS011;13339;50.840;4.346;2023-05-07T14:06:24;12.80;;;11.40;;
25409;SDS011;13339;50.840;4.346;2023-05-07T14:08:50;13.33;;;11.90;;
25409;SDS011;13339;50.840;4.346;2023-05-07T14:11:16;17.60;;;12.60;;
25409;SDS011;13339;50.840;4.346;2023-05-07T14:13:41;13.63;;;12.23;;
25409;SDS011;13339;50.840;4.346;2023-05-07T14:16:07;14.80;;;13.37;;
25409;SDS011;13339;50.840;4.346;2023-05-07T14:18:33;13.73;;;12.43;;
25409;SDS011;13339;50.840;4.346;2023-05-07T14:20:59;14.57;;;12.63;;
25409;SDS011;13339;50.840;4.346;2023-05-07T14:23:25;14.53;;;12.57;;
25409;SDS011;13339;50.840;4.346;2023-05-07T14:25:51;12.57;;;11.30;;
25409;SDS011;13339;50.840;4.346;2023-05-07T14:28:18;13.90;;;12.23;;
25409;SDS011;13339;50.840;4.346;2023-05-07T14:30:43;14.33;;;12.37;;
25409;SDS011;13339;50.840;4.346;2023-05-07T14:33:09;12.27;;;11.03;;
25409;SDS011;13339;50.840;4.346;2023-05-07T14:35:35;11.70;;;10.50;;
25409;SDS011;13339;50.840;4.346;2023-05-07T14:38:01;12.07;;;10.67;;
25409;SDS011;13339;50.840;4.346;2023-05-07T14:40:26;11.83;;;10.60;;
25409;SDS011;13339;50.840;4.346;2023-05-07T14:42:52;14.03;;;11.90;;
25409;SDS011;13339;50.840;4.346;2023-05-07T14:45:17;14.10;;;11.80;;
25409;SDS011;13339;50.840;4.346;2023-05-07T14:47:43;12.13;;;10.40;;
25409;SDS011;13339;50.840;4.346;2023-05-07T14:50:09;14.07;;;10.77;;